Time;durP1;ratioP1;P1;durP2;ratioP2;P2;SDS_P1;SDS_P2;PMS_P1;PMS_P2;Temp;Humidity;BMP_temperature;BMP_pressure;BME280_temperature;BME280_humidity;BME280_pressure;Samples;Min_cycle;Max_cycle;Signal;HPM_P1;HPM_P2
2023/03/01 00:01:50;;;;;;;;;;;-0.40;99.90;;;;;;5046106;28;19973;-81
2023/03/01 00:04:16;;;;;;;;;;;-0.50;99.90;;;;;;4987422;28;19926;-83
2023/03/01 00:06:45;;;;;;;;;;;-0.50;99.90;;;;;;4960429;28;20009;-83
2023/03/01 00:09:12;;;;;;;;;;;-0.40;99.90;;;;;;4960244;28;19927;-81
2023/03/01 00:11:37;;;;;;;;;;;-0.30;99.90;;;;;;5051621;28;19942;-80
2023/03/01 00:14:06;;;;;;;;;;;-0.30;99.90;;;;;;4963214;28;20295;-79
2023/03/01 00:16:33;;;;;;;;;;;-0.40;99.90;;;;;;4953460;28;19933;-82
2023/03/01 00:18:59;;;;;;;;;;;-0.50;99.90;;;;;;4928257;28;19927;-81
2023/03/01 00:21:25;;;;;;;;;;;-0.60;99.90;;;;;;4961064;28;20005;-81
2023/03/01 00:23:51;;;;;;;;;;;-0.60;99.90;;;;;;4959300;28;19926;-83
2023/03/01 00:26:18;;;;;;;;;;;-0.50;99.90;;;;;;4951634;28;19931;-81
2023/03/01 00:28:43;;;;;;;;;;;-0.70;99.90;;;;;;4952691;28;20314;-81
2023/03/01 00:31:11;;;;;;;;;;;-0.60;99.90;;;;;;4957039;28;20025;-79
2023/03/01 00:33:36;;;;;;;;;;;-0.60;99.90;;;;;;4970808;28;19966;-82
2023/03/01 00:36:02;;;;;;;;;;;-0.90;99.90;;;;;;4931480;28;19974;-82
2023/03/01 00:38:28;;;;;;;;;;;-0.90;99.90;;;;;;4955291;28;19926;-82
2023/03/01 00:40:53;;;;;;;;;;;-0.80;99.90;;;;;;4936618;28;20261;-81
2023/03/01 00:43:19;;;;;;;;;;;-0.90;99.90;;;;;;4954354;28;19990;-84
2023/03/01 00:45:45;;;;;;;;;;;-0.90;99.90;;;;;;4959916;28;20465;-83
2023/03/01 00:48:10;;;;;;;;;;;-0.90;99.90;;;;;;4960803;28;19931;-81
2023/03/01 00:50:36;;;;;;;;;;;-0.90;99.90;;;;;;4966227;28;20658;-81
2023/03/01 00:53:02;;;;;;;;;;;-0.90;99.90;;;;;;4957970;28;20011;-81
2023/03/01 00:55:27;;;;;;;;;;;-0.80;99.90;;;;;;4972142;28;19976;-79
2023/03/01 00:57:53;;;;;;;;;;;-0.90;99.90;;;;;;4968083;28;20423;-81
2023/03/01 01:00:19;;;;;;;;;;;-0.80;99.90;;;;;;4963804;28;19937;-82
2023/03/01 01:02:45;;;;;;;;;;;-1.00;99.90;;;;;;4949364;28;19931;-81
2023/03/01 01:05:11;;;;;;;;;;;-1.00;99.90;;;;;;4964968;28;19934;-82
2023/03/01 01:07:36;;;;;;;;;;;-0.80;99.90;;;;;;4964035;28;19926;-79
2023/03/01 01:10:02;;;;;;;;;;;-0.90;99.90;;;;;;4999663;28;19943;-83
2023/03/01 01:12:28;;;;;;;;;;;-0.90;99.90;;;;;;4989615;28;19927;-82
2023/03/01 01:14:53;;;;;;;;;;;-0.80;99.90;;;;;;4993630;28;19933;-84
2023/03/01 01:17:19;;;;;;;;;;;-1.00;99.90;;;;;;4950535;28;19934;-84
2023/03/01 01:19:44;;;;;;;;;;;-1.00;99.90;;;;;;4976847;28;20008;-83
2023/03/01 01:22:10;;;;;;;;;;;-1.00;99.90;;;;;;5019198;28;20270;-83
2023/03/01 01:24:35;;;;;;;;;;;-0.90;99.90;;;;;;4987709;28;19979;-82
2023/03/01 01:27:01;;;;;;;;;;;-0.90;99.90;;;;;;4993129;28;19953;-83
2023/03/01 01:29:27;;;;;;;;;;;-0.90;99.90;;;;;;4942486;28;21233;-79
2023/03/01 01:31:52;;;;;;;;;;;-0.80;99.90;;;;;;4969455;28;19926;-83
2023/03/01 01:34:19;;;;;;;;;;;-1.00;99.90;;;;;;4964988;28;19923;-82
2023/03/01 01:36:49;;;;;;;;;;;-1.00;99.90;;;;;;4969010;28;19926;-83
2023/03/01 01:39:15;;;;;;;;;;;-1.00;99.90;;;;;;4960167;28;19972;-81
2023/03/01 01:41:44;;;;;;;;;;;-1.00;99.90;;;;;;5005931;28;19949;-82
2023/03/01 01:44:23;;;;;;;;;;;-1.00;99.90;;;;;;4963194;28;19933;-78
2023/03/01 01:46:52;;;;;;;;;;;-1.00;99.90;;;;;;4970536;28;19923;-81
2023/03/01 01:49:26;;;;;;;;;;;-0.90;99.90;;;;;;4977677;28;19935;-81
2023/03/01 01:51:56;;;;;;;;;;;-1.00;99.90;;;;;;4961535;28;19933;-83
2023/03/01 01:54:24;;;;;;;;;;;-1.10;99.90;;;;;;4959993;28;19926;-82
2023/03/01 01:56:56;;;;;;;;;;;-1.10;99.90;;;;;;4965896;28;19973;-83
2023/03/01 01:59:24;;;;;;;;;;;-1.00;99.90;;;;;;4984596;28;19927;-81
2023/03/01 02:01:51;;;;;;;;;;;-1.10;99.90;;;;;;4955370;28;19963;-81
2023/03/01 02:04:17;;;;;;;;;;;-1.10;99.90;;;;;;4985296;28;19933;-84
2023/03/01 02:06:50;;;;;;;;;;;-1.00;99.90;;;;;;4981841;28;19927;-83
2023/03/01 02:09:16;;;;;;;;;;;-1.20;99.90;;;;;;4950916;28;19926;-80
2023/03/01 02:11:43;;;;;;;;;;;-1.40;99.90;;;;;;4997445;23;19926;-82
2023/03/01 02:14:08;;;;;;;;;;;-1.30;99.90;;;;;;4945641;28;19930;-83
2023/03/01 02:16:34;;;;;;;;;;;-1.50;99.90;;;;;;4959547;28;19933;-80
2023/03/01 02:19:00;;;;;;;;;;;-1.50;99.90;;;;;;4944992;28;19927;-80
2023/03/01 02:21:35;;;;;;;;;;;-1.50;99.90;;;;;;4945666;28;19926;-85
2023/03/01 02:24:03;;;;;;;;;;;-1.40;99.90;;;;;;5011597;28;20319;-86
2023/03/01 02:26:33;;;;;;;;;;;-1.40;99.90;;;;;;4958785;28;19934;-82
2023/03/01 02:28:58;;;;;;;;;;;-1.60;99.90;;;;;;4974970;28;19926;-82
2023/03/01 02:31:42;;;;;;;;;;;-1.90;99.90;;;;;;5019934;28;20320;-84
2023/03/01 02:34:10;;;;;;;;;;;-1.80;99.90;;;;;;4948066;28;19977;-84
2023/03/01 02:36:37;;;;;;;;;;;-1.60;99.90;;;;;;5004202;28;19924;-86
2023/03/01 02:39:05;;;;;;;;;;;-1.60;99.90;;;;;;5000076;28;19926;-84
2023/03/01 02:41:33;;;;;;;;;;;-1.60;99.90;;;;;;4983559;28;20581;-83
2023/03/01 02:43:59;;;;;;;;;;;-1.70;99.90;;;;;;4970820;28;19931;-85
2023/03/01 02:46:26;;;;;;;;;;;-2.00;99.90;;;;;;4948140;28;20013;-80
2023/03/01 02:48:53;;;;;;;;;;;-1.90;99.90;;;;;;4955066;28;19930;-81
2023/03/01 02:51:37;;;;;;;;;;;-1.90;99.90;;;;;;5009282;28;20031;-84
2023/03/01 02:54:17;;;;;;;;;;;-1.80;99.90;;;;;;4947821;28;20251;-79
2023/03/01 02:56:44;;;;;;;;;;;-1.60;99.90;;;;;;4957049;28;19927;-84
2023/03/01 02:59:10;;;;;;;;;;;-1.70;99.90;;;;;;4948586;28;20041;-85
2023/03/01 03:01:38;;;;;;;;;;;-1.70;99.90;;;;;;5014348;28;20369;-81
2023/03/01 03:04:05;;;;;;;;;;;-1.70;99.90;;;;;;4952662;28;20017;-86
2023/03/01 03:06:31;;;;;;;;;;;-1.70;99.90;;;;;;4947078;28;20251;-82
2023/03/01 03:08:56;;;;;;;;;;;-1.80;99.90;;;;;;4954292;28;19995;-84
2023/03/01 03:11:22;;;;;;;;;;;-1.80;99.90;;;;;;5004095;28;19946;-83
2023/03/01 03:13:47;;;;;;;;;;;-1.80;99.90;;;;;;5008766;28;19961;-78
2023/03/01 03:16:13;;;;;;;;;;;-1.80;99.90;;;;;;4945839;28;19997;-83
2023/03/01 03:18:39;;;;;;;;;;;-1.90;99.90;;;;;;5040961;28;19926;-84
2023/03/01 03:21:07;;;;;;;;;;;-2.00;99.90;;;;;;5002882;28;19925;-83
2023/03/01 03:23:33;;;;;;;;;;;-2.20;99.90;;;;;;5012843;28;19926;-82
2023/03/01 03:25:58;;;;;;;;;;;-2.20;99.90;;;;;;5016675;28;20011;-80
2023/03/01 03:28:24;;;;;;;;;;;-2.10;99.90;;;;;;5006460;28;19966;-84
2023/03/01 03:30:50;;;;;;;;;;;-2.20;99.90;;;;;;4962707;28;19934;-79
2023/03/01 03:33:15;;;;;;;;;;;-2.10;99.90;;;;;;5005004;28;19926;-80
2023/03/01 03:35:42;;;;;;;;;;;-2.20;99.90;;;;;;4974018;28;19945;-85
2023/03/01 03:38:15;;;;;;;;;;;-2.10;99.90;;;;;;5024427;28;20511;-86
2023/03/01 03:40:48;;;;;;;;;;;-2.30;99.90;;;;;;4986765;28;19924;-78
2023/03/01 03:43:18;;;;;;;;;;;-2.20;99.90;;;;;;4995330;28;20521;-79
2023/03/01 03:45:45;;;;;;;;;;;-2.20;99.90;;;;;;4980070;28;19933;-84
2023/03/01 03:48:10;;;;;;;;;;;-2.40;99.90;;;;;;5021064;28;19925;-83
2023/03/01 03:50:37;;;;;;;;;;;-2.60;99.90;;;;;;4953396;28;20214;-84
2023/03/01 03:53:04;;;;;;;;;;;-2.90;99.90;;;;;;4961428;28;19980;-85
2023/03/01 03:55:30;;;;;;;;;;;-2.90;99.90;;;;;;4964023;28;19986;-85
2023/03/01 03:58:02;;;;;;;;;;;-2.90;99.90;;;;;;5010604;28;19931;-84
2023/03/01 04:00:28;;;;;;;;;;;-2.80;99.90;;;;;;5011283;28;19964;-84
2023/03/01 04:02:56;;;;;;;;;;;-2.80;99.90;;;;;;4968628;28;19933;-85
2023/03/01 04:05:22;;;;;;;;;;;-2.80;99.90;;;;;;4946217;28;19980;-84
2023/03/01 04:07:47;;;;;;;;;;;-2.90;99.90;;;;;;5024950;28;20388;-79
2023/03/01 04:10:14;;;;;;;;;;;-2.80;99.90;;;;;;4962017;28;19956;-82
2023/03/01 04:12:42;;;;;;;;;;;-2.80;99.90;;;;;;4962270;28;19925;-85
2023/03/01 04:15:13;;;;;;;;;;;-2.80;99.90;;;;;;4967087;28;20010;-83
2023/03/01 04:17:42;;;;;;;;;;;-2.90;99.90;;;;;;5019504;28;19936;-83
2023/03/01 04:20:10;;;;;;;;;;;-2.90;99.90;;;;;;5024191;28;19971;-81
2023/03/01 04:22:36;;;;;;;;;;;-2.90;99.90;;;;;;4968447;28;20105;-83
2023/03/01 04:25:02;;;;;;;;;;;-3.10;99.90;;;;;;4968477;28;19932;-84
2023/03/01 04:27:28;;;;;;;;;;;-3.10;99.90;;;;;;5028594;28;20749;-79
2023/03/01 04:29:53;;;;;;;;;;;-3.00;99.90;;;;;;4969749;28;20049;-85
2023/03/01 04:32:19;;;;;;;;;;;-3.20;99.90;;;;;;5031001;28;19947;-80
2023/03/01 04:34:44;;;;;;;;;;;-3.10;99.90;;;;;;4975189;28;19976;-80
2023/03/01 04:37:10;;;;;;;;;;;-3.20;99.90;;;;;;5048378;28;19931;-81
2023/03/01 04:39:45;;;;;;;;;;;-3.20;99.90;;;;;;4968650;28;19922;-83
2023/03/01 04:42:19;;;;;;;;;;;-3.20;99.90;;;;;;4959207;28;20009;-79
2023/03/01 04:44:45;;;;;;;;;;;-3.20;99.90;;;;;;4962129;28;19927;-82
2023/03/01 04:47:12;;;;;;;;;;;-3.20;99.90;;;;;;4949849;28;19966;-84
2023/03/01 04:49:37;;;;;;;;;;;-3.30;99.90;;;;;;4946554;28;19934;-83
2023/03/01 04:52:03;;;;;;;;;;;-3.30;99.90;;;;;;4970920;28;19932;-85
2023/03/01 04:54:33;;;;;;;;;;;-3.40;99.90;;;;;;4963570;28;19926;-82
2023/03/01 04:56:59;;;;;;;;;;;-3.20;99.90;;;;;;4954263;28;20338;-84
2023/03/01 04:59:25;;;;;;;;;;;-3.30;99.90;;;;;;5041449;28;19924;-84
2023/03/01 05:01:51;;;;;;;;;;;-3.50;99.90;;;;;;4996107;28;20344;-84
2023/03/01 05:04:16;;;;;;;;;;;-3.50;99.90;;;;;;4953192;28;20044;-82
2023/03/01 05:06:42;;;;;;;;;;;-3.30;99.90;;;;;;5004883;28;20390;-85
2023/03/01 05:09:08;;;;;;;;;;;-3.30;99.90;;;;;;5003924;28;20240;-80
2023/03/01 05:11:35;;;;;;;;;;;-3.40;99.90;;;;;;4998544;28;19933;-82
2023/03/01 05:14:02;;;;;;;;;;;-3.40;99.90;;;;;;5032436;28;19925;-85
2023/03/01 05:16:27;;;;;;;;;;;-3.60;99.90;;;;;;4957266;28;19975;-84
2023/03/01 05:18:55;;;;;;;;;;;-3.70;99.90;;;;;;4989090;28;20428;-81
2023/03/01 05:21:20;;;;;;;;;;;-3.80;99.90;;;;;;5045276;28;19926;-85
2023/03/01 05:23:46;;;;;;;;;;;-3.60;99.90;;;;;;4984674;28;20368;-84
2023/03/01 05:26:12;;;;;;;;;;;-3.60;99.90;;;;;;4976158;28;19932;-84
2023/03/01 05:28:38;;;;;;;;;;;-3.60;99.90;;;;;;5032617;28;20425;-81
2023/03/01 05:31:09;;;;;;;;;;;-3.60;99.90;;;;;;5013798;28;20029;-84
2023/03/01 05:33:41;;;;;;;;;;;-3.50;99.90;;;;;;5001150;28;19963;-85
2023/03/01 05:36:07;;;;;;;;;;;-3.40;99.90;;;;;;4989221;28;20079;-82
2023/03/01 05:38:33;;;;;;;;;;;-3.30;99.90;;;;;;4987572;28;19927;-81
2023/03/01 05:40:58;;;;;;;;;;;-3.40;99.90;;;;;;5019680;28;19926;-83
2023/03/01 05:43:24;;;;;;;;;;;-3.40;99.90;;;;;;4965529;28;19933;-85
2023/03/01 05:45:49;;;;;;;;;;;-3.40;99.90;;;;;;5021876;28;19932;-85
2023/03/01 05:48:15;;;;;;;;;;;-3.60;99.90;;;;;;5036226;28;20019;-79
2023/03/01 05:50:42;;;;;;;;;;;-3.70;99.90;;;;;;4983764;28;19930;-82
2023/03/01 05:53:15;;;;;;;;;;;-3.90;99.90;;;;;;4966180;28;20405;-82
2023/03/01 05:55:41;;;;;;;;;;;-3.90;99.90;;;;;;5031515;28;19925;-80
2023/03/01 05:58:09;;;;;;;;;;;-3.80;99.90;;;;;;5045488;28;19931;-83
2023/03/01 06:00:34;;;;;;;;;;;-3.90;99.90;;;;;;5011638;28;20318;-81
2023/03/01 06:03:00;;;;;;;;;;;-3.80;99.90;;;;;;5013565;28;19925;-86
2023/03/01 06:05:26;;;;;;;;;;;-3.70;99.90;;;;;;4967330;28;20285;-83
2023/03/01 06:07:52;;;;;;;;;;;-3.80;99.90;;;;;;4985385;28;19925;-84
2023/03/01 06:10:19;;;;;;;;;;;-3.90;99.90;;;;;;5007647;28;19930;-84
2023/03/01 06:12:45;;;;;;;;;;;-3.90;99.90;;;;;;4966308;28;19942;-83
2023/03/01 06:15:11;;;;;;;;;;;-3.70;99.90;;;;;;5042428;28;19924;-82
2023/03/01 06:17:38;;;;;;;;;;;-3.70;99.90;;;;;;4968193;28;20520;-83
2023/03/01 06:20:11;;;;;;;;;;;-3.70;99.90;;;;;;4956656;28;19930;-82
2023/03/01 06:22:37;;;;;;;;;;;-3.80;99.90;;;;;;5042530;28;20402;-81
2023/03/01 06:25:02;;;;;;;;;;;-3.70;99.90;;;;;;4980584;28;19958;-83
2023/03/01 06:27:28;;;;;;;;;;;-3.60;99.90;;;;;;4950396;28;20417;-80
2023/03/01 06:29:54;;;;;;;;;;;-3.60;99.90;;;;;;4934922;29;20021;-83
2023/03/01 06:32:19;;;;;;;;;;;-3.60;99.90;;;;;;4972902;28;19922;-82
2023/03/01 06:34:45;;;;;;;;;;;-3.40;99.90;;;;;;4950187;29;20029;-79
2023/03/01 06:37:10;;;;;;;;;;;-3.60;99.90;;;;;;4986882;28;19939;-82
2023/03/01 06:39:36;;;;;;;;;;;-3.70;99.90;;;;;;4982479;28;19934;-84
2023/03/01 06:42:01;;;;;;;;;;;-3.80;99.90;;;;;;4975492;28;20301;-82
2023/03/01 06:44:27;;;;;;;;;;;-3.70;99.90;;;;;;4976234;28;19995;-83
2023/03/01 06:46:53;;;;;;;;;;;-3.70;99.90;;;;;;4966777;28;20298;-85
2023/03/01 06:49:19;;;;;;;;;;;-3.90;99.90;;;;;;4981715;28;20306;-83
2023/03/01 06:51:46;;;;;;;;;;;-3.60;99.90;;;;;;5000242;28;19995;-83
2023/03/01 06:54:11;;;;;;;;;;;-3.60;99.90;;;;;;4968682;28;20278;-85
2023/03/01 06:56:37;;;;;;;;;;;-3.50;99.90;;;;;;5024247;28;19946;-79
2023/03/01 06:59:02;;;;;;;;;;;-3.50;99.90;;;;;;4948972;28;19922;-84
2023/03/01 07:01:28;;;;;;;;;;;-3.60;99.90;;;;;;4993822;28;19934;-84
2023/03/01 07:03:54;;;;;;;;;;;-3.60;99.90;;;;;;4994289;28;19926;-78
2023/03/01 07:06:20;;;;;;;;;;;-3.70;99.90;;;;;;4951903;28;20271;-81
2023/03/01 07:08:45;;;;;;;;;;;-3.70;99.90;;;;;;5008383;28;20023;-83
2023/03/01 07:11:11;;;;;;;;;;;-3.50;99.90;;;;;;5014911;28;19977;-85
2023/03/01 07:13:36;;;;;;;;;;;-3.60;99.90;;;;;;4967280;28;20013;-83
2023/03/01 07:16:02;;;;;;;;;;;-3.40;99.90;;;;;;4985670;28;19926;-84
2023/03/01 07:18:28;;;;;;;;;;;-3.40;99.90;;;;;;5039502;28;19947;-84
2023/03/01 07:20:53;;;;;;;;;;;-3.40;99.90;;;;;;5044847;28;19928;-82
2023/03/01 07:23:19;;;;;;;;;;;-3.20;99.90;;;;;;4995118;28;20035;-80
2023/03/01 07:25:50;;;;;;;;;;;-3.10;99.90;;;;;;4991782;28;19968;-84
2023/03/01 07:28:16;;;;;;;;;;;-3.10;99.90;;;;;;4962526;28;19998;-81
2023/03/01 07:30:41;;;;;;;;;;;-3.00;99.90;;;;;;4981035;28;19927;-83
2023/03/01 07:33:07;;;;;;;;;;;-2.90;99.90;;;;;;4958597;28;20220;-82
2023/03/01 07:35:33;;;;;;;;;;;-2.80;99.90;;;;;;4965208;28;19927;-86
2023/03/01 07:37:59;;;;;;;;;;;-2.50;99.90;;;;;;4955852;28;19934;-82
2023/03/01 07:40:24;;;;;;;;;;;-2.40;99.90;;;;;;5044452;28;19925;-79
2023/03/01 07:42:54;;;;;;;;;;;-2.30;99.90;;;;;;4989206;28;19926;-86
2023/03/01 07:45:20;;;;;;;;;;;-2.30;99.90;;;;;;5013527;28;19925;-82
2023/03/01 07:47:45;;;;;;;;;;;-2.00;99.90;;;;;;4976518;28;19922;-83
2023/03/01 07:50:11;;;;;;;;;;;-2.00;99.90;;;;;;4965231;28;19926;-85
2023/03/01 07:52:36;;;;;;;;;;;-1.60;99.90;;;;;;4981101;28;20366;-80
2023/03/01 07:55:02;;;;;;;;;;;-1.60;99.90;;;;;;4966642;28;19930;-84
2023/03/01 07:57:27;;;;;;;;;;;-1.40;99.90;;;;;;4968368;28;20277;-84
2023/03/01 07:59:53;;;;;;;;;;;-1.20;99.90;;;;;;4955936;28;20331;-78
2023/03/01 08:02:18;;;;;;;;;;;-1.20;99.90;;;;;;4968914;28;20033;-86
2023/03/01 08:04:44;;;;;;;;;;;-1.10;99.90;;;;;;4951695;28;19960;-88
2023/03/01 08:07:10;;;;;;;;;;;-0.90;99.90;;;;;;4949384;28;19933;-78
2023/03/01 08:09:37;;;;;;;;;;;-0.70;99.90;;;;;;4985690;28;20302;-85
2023/03/01 08:12:04;;;;;;;;;;;-0.70;99.90;;;;;;4950517;28;20025;-81
2023/03/01 08:14:30;;;;;;;;;;;-0.40;99.90;;;;;;4961079;28;20293;-85
2023/03/01 08:16:56;;;;;;;;;;;-0.40;99.90;;;;;;4955587;28;20019;-83
2023/03/01 08:19:21;;;;;;;;;;;-0.20;99.90;;;;;;4982812;28;19927;-86
2023/03/01 08:21:47;;;;;;;;;;;-0.20;99.90;;;;;;4939197;29;19934;-78
2023/03/01 08:24:13;;;;;;;;;;;-0.20;99.90;;;;;;4947100;28;19930;-82
2023/03/01 08:26:39;;;;;;;;;;;0.10;99.90;;;;;;4954064;28;19980;-81
2023/03/01 08:29:04;;;;;;;;;;;0.10;99.90;;;;;;4954522;28;19927;-80
2023/03/01 08:31:37;;;;;;;;;;;0.30;99.90;;;;;;4987507;28;20457;-86
2023/03/01 08:34:05;;;;;;;;;;;0.20;99.90;;;;;;4955154;29;19927;-78
2023/03/01 08:36:32;;;;;;;;;;;0.40;99.90;;;;;;4995232;28;19948;-83
2023/03/01 08:38:58;;;;;;;;;;;0.40;99.90;;;;;;4988581;28;19972;-79
2023/03/01 08:41:23;;;;;;;;;;;0.50;99.90;;;;;;4934447;29;20628;-81
2023/03/01 08:43:49;;;;;;;;;;;0.50;99.90;;;;;;4952162;28;19972;-80
2023/03/01 08:46:14;;;;;;;;;;;0.70;99.90;;;;;;4964032;28;19927;-78
2023/03/01 08:48:42;;;;;;;;;;;0.80;99.90;;;;;;4962775;28;19969;-83
2023/03/01 08:51:09;;;;;;;;;;;1.00;99.90;;;;;;4961002;28;20033;-83
2023/03/01 08:53:34;;;;;;;;;;;1.10;99.90;;;;;;4952425;28;19926;-82
2023/03/01 08:56:02;;;;;;;;;;;1.30;99.90;;;;;;4954050;28;19944;-83
2023/03/01 08:58:28;;;;;;;;;;;1.30;99.90;;;;;;4968957;28;20017;-83
2023/03/01 09:00:53;;;;;;;;;;;1.50;99.90;;;;;;5051399;28;19967;-84
2023/03/01 09:03:19;;;;;;;;;;;1.50;99.90;;;;;;5061322;28;19925;-80
2023/03/01 09:05:45;;;;;;;;;;;1.60;99.90;;;;;;5007107;28;19942;-85
2023/03/01 09:08:11;;;;;;;;;;;1.70;99.90;;;;;;4954394;28;19934;-83
2023/03/01 09:10:37;;;;;;;;;;;1.80;99.90;;;;;;4954472;28;20356;-84
2023/03/01 09:13:03;;;;;;;;;;;1.90;99.90;;;;;;4975308;28;20007;-77
2023/03/01 09:15:28;;;;;;;;;;;2.10;99.90;;;;;;5028462;28;19973;-84
2023/03/01 09:17:54;;;;;;;;;;;2.10;99.90;;;;;;4962337;28;19927;-84
2023/03/01 09:20:19;;;;;;;;;;;2.40;99.90;;;;;;5059923;28;19925;-77
2023/03/01 09:22:45;;;;;;;;;;;2.40;99.90;;;;;;5057975;28;19933;-84
2023/03/01 09:25:11;;;;;;;;;;;2.50;99.90;;;;;;5012352;28;19938;-83
2023/03/01 09:27:36;;;;;;;;;;;2.50;99.90;;;;;;4969501;28;19969;-79
2023/03/01 09:30:02;;;;;;;;;;;2.60;99.90;;;;;;4979310;28;19925;-83
2023/03/01 09:32:29;;;;;;;;;;;2.70;99.90;;;;;;5051956;28;20293;-86
2023/03/01 09:35:03;;;;;;;;;;;2.70;99.90;;;;;;4950196;28;19957;-84
2023/03/01 09:37:29;;;;;;;;;;;2.90;99.90;;;;;;4965331;28;19965;-83
2023/03/01 09:39:54;;;;;;;;;;;3.00;99.90;;;;;;4958290;28;20375;-77
2023/03/01 09:42:20;;;;;;;;;;;3.10;99.90;;;;;;4951172;29;19926;-81
2023/03/01 09:44:57;;;;;;;;;;;3.10;99.90;;;;;;4961671;28;19945;-85
2023/03/01 09:47:30;;;;;;;;;;;3.30;99.90;;;;;;4965023;28;20297;-84
2023/03/01 09:50:16;;;;;;;;;;;3.40;99.90;;;;;;4996193;28;19956;-82
2023/03/01 09:52:52;;;;;;;;;;;3.50;99.90;;;;;;4957759;28;19977;-81
2023/03/01 09:55:25;;;;;;;;;;;3.60;99.90;;;;;;4977818;28;19926;-79
2023/03/01 09:57:53;;;;;;;;;;;3.70;99.90;;;;;;4950751;28;19926;-84
2023/03/01 10:00:37;;;;;;;;;;;3.80;99.90;;;;;;4969697;28;19969;-85
2023/03/01 10:03:22;;;;;;;;;;;4.00;99.90;;;;;;4949484;28;19930;-82
2023/03/01 10:06:14;;;;;;;;;;;4.00;99.90;;;;;;4957969;28;20002;-84
2023/03/01 10:08:43;;;;;;;;;;;4.00;99.90;;;;;;4966611;28;19953;-84
2023/03/01 10:11:22;;;;;;;;;;;4.10;99.90;;;;;;5026599;28;19926;-79
2023/03/01 10:13:52;;;;;;;;;;;4.30;99.90;;;;;;4961934;28;19955;-79
2023/03/01 10:16:22;;;;;;;;;;;4.40;99.90;;;;;;4965470;28;19926;-79
2023/03/01 10:18:52;;;;;;;;;;;4.40;99.90;;;;;;4959455;28;19938;-80
2023/03/01 10:21:19;;;;;;;;;;;4.50;99.90;;;;;;5012793;28;19927;-80
2023/03/01 10:23:45;;;;;;;;;;;4.60;99.90;;;;;;4976617;28;19925;-81
2023/03/01 10:26:23;;;;;;;;;;;4.60;99.90;;;;;;4965885;28;19927;-85
2023/03/01 10:29:21;;;;;;;;;;;4.50;99.90;;;;;;4957061;28;19980;-81
2023/03/01 10:31:48;;;;;;;;;;;4.70;99.90;;;;;;5003208;28;19977;-86
2023/03/01 10:34:15;;;;;;;;;;;4.80;99.90;;;;;;4968969;28;20327;-83
2023/03/01 10:36:41;;;;;;;;;;;4.90;99.90;;;;;;4958009;28;20001;-84
2023/03/01 10:39:14;;;;;;;;;;;5.00;99.90;;;;;;4949864;28;19934;-85
2023/03/01 10:41:51;;;;;;;;;;;4.90;99.90;;;;;;4982555;28;20087;-85
2023/03/01 10:44:36;;;;;;;;;;;5.00;99.90;;;;;;4950360;28;20376;-85
2023/03/01 10:47:01;;;;;;;;;;;5.20;99.90;;;;;;4982935;28;19933;-84
2023/03/01 10:49:27;;;;;;;;;;;5.30;99.90;;;;;;4943777;28;19926;-84
2023/03/01 10:51:53;;;;;;;;;;;5.30;99.90;;;;;;4946784;29;19926;-85
2023/03/01 10:54:25;;;;;;;;;;;5.30;99.90;;;;;;4956992;28;20002;-81
2023/03/01 10:56:53;;;;;;;;;;;5.40;99.90;;;;;;4952514;28;19937;-84
2023/03/01 10:59:25;;;;;;;;;;;5.40;99.90;;;;;;4954420;28;19970;-85
2023/03/01 11:02:09;;;;;;;;;;;5.20;99.90;;;;;;5082750;28;19925;-84
2023/03/01 11:04:34;;;;;;;;;;;5.40;99.90;;;;;;5017417;28;19977;-85
2023/03/01 11:07:00;;;;;;;;;;;5.40;99.90;;;;;;5050089;28;19971;-86
2023/03/01 11:09:32;;;;;;;;;;;5.50;99.90;;;;;;4964895;28;19926;-85
2023/03/01 11:11:59;;;;;;;;;;;5.60;99.90;;;;;;5047546;28;19926;-85
2023/03/01 11:14:32;;;;;;;;;;;5.60;99.90;;;;;;4960322;28;19933;-84
2023/03/01 11:17:01;;;;;;;;;;;5.70;99.90;;;;;;4930444;28;19933;-82
2023/03/01 11:19:27;;;;;;;;;;;5.70;99.90;;;;;;4991805;28;19926;-82
2023/03/01 11:22:11;;;;;;;;;;;5.70;99.90;;;;;;5046598;28;19924;-83
2023/03/01 11:24:41;;;;;;;;;;;5.80;99.90;;;;;;4974113;28;19931;-82
2023/03/01 11:27:18;;;;;;;;;;;5.70;99.90;;;;;;5038349;28;19951;-82
2023/03/01 11:30:10;;;;;;;;;;;5.80;99.90;;;;;;4956238;28;19927;-82
2023/03/01 11:32:39;;;;;;;;;;;5.90;99.90;;;;;;4987089;28;19928;-84
2023/03/01 11:35:10;;;;;;;;;;;5.90;99.90;;;;;;4941211;28;19945;-85
2023/03/01 11:37:39;;;;;;;;;;;6.00;99.90;;;;;;4972299;28;20332;-82
2023/03/01 11:40:10;;;;;;;;;;;6.00;99.90;;;;;;4971299;28;19930;-82
2023/03/01 11:42:47;;;;;;;;;;;6.00;99.90;;;;;;4927509;28;20432;-83
2023/03/01 11:45:12;;;;;;;;;;;6.00;99.90;;;;;;4944365;28;19976;-85
2023/03/01 11:47:45;;;;;;;;;;;6.20;99.90;;;;;;4948140;28;20341;-85
2023/03/01 11:50:15;;;;;;;;;;;6.30;99.90;;;;;;4943214;28;19934;-85
2023/03/01 11:52:49;;;;;;;;;;;6.20;99.90;;;;;;4938834;29;21125;-85
2023/03/01 11:55:33;;;;;;;;;;;6.30;99.90;;;;;;4938363;28;20314;-84
2023/03/01 11:57:59;;;;;;;;;;;6.20;99.90;;;;;;4940674;28;20597;-85
2023/03/01 12:00:27;;;;;;;;;;;6.40;99.90;;;;;;4970000;28;19942;-82
2023/03/01 12:02:56;;;;;;;;;;;6.30;99.90;;;;;;4948526;28;19934;-84
2023/03/01 12:05:21;;;;;;;;;;;6.30;99.90;;;;;;4972423;28;19933;-77
2023/03/01 12:07:55;;;;;;;;;;;6.50;99.90;;;;;;4941118;29;20418;-78
2023/03/01 12:10:20;;;;;;;;;;;6.60;99.90;;;;;;4943969;28;19926;-84
2023/03/01 12:13:06;;;;;;;;;;;6.70;99.90;;;;;;4970542;28;19941;-82
2023/03/01 12:15:34;;;;;;;;;;;6.70;99.90;;;;;;4987767;28;19964;-80
2023/03/01 12:18:19;;;;;;;;;;;6.40;99.90;;;;;;5030280;28;19930;-80
2023/03/01 12:20:50;;;;;;;;;;;6.50;99.90;;;;;;4960922;28;19930;-82
2023/03/01 12:23:16;;;;;;;;;;;6.50;99.90;;;;;;5011122;28;19926;-79
2023/03/01 12:25:50;;;;;;;;;;;6.60;99.90;;;;;;4947053;28;19927;-82
2023/03/01 12:28:25;;;;;;;;;;;6.70;99.90;;;;;;4977858;28;19926;-84
2023/03/01 12:30:51;;;;;;;;;;;6.70;99.90;;;;;;4946856;28;19926;-85
2023/03/01 12:33:16;;;;;;;;;;;6.60;99.90;;;;;;4962951;28;20406;-79
2023/03/01 12:36:11;;;;;;;;;;;6.60;99.90;;;;;;4975386;28;20674;-81
2023/03/01 12:38:41;;;;;;;;;;;6.50;99.90;;;;;;4993647;28;20429;-81
2023/03/01 12:41:26;;;;;;;;;;;6.60;99.90;;;;;;4949282;28;20038;-78
2023/03/01 12:43:52;;;;;;;;;;;6.60;99.90;;;;;;4957389;28;19930;-77
2023/03/01 12:46:30;;;;;;;;;;;6.70;99.90;;;;;;4948207;28;19934;-81
2023/03/01 12:49:02;;;;;;;;;;;6.80;99.90;;;;;;4951163;28;19923;-76
2023/03/01 12:51:30;;;;;;;;;;;6.90;99.90;;;;;;4948250;29;19933;-82
2023/03/01 12:53:57;;;;;;;;;;;6.70;99.90;;;;;;4947701;29;19923;-86
2023/03/01 12:56:25;;;;;;;;;;;6.80;99.90;;;;;;4971640;28;19927;-77
2023/03/01 12:58:53;;;;;;;;;;;6.90;99.90;;;;;;4950599;28;19923;-82
2023/03/01 13:01:38;;;;;;;;;;;6.80;99.90;;;;;;4971193;28;20029;-84
2023/03/01 13:04:12;;;;;;;;;;;7.00;99.90;;;;;;4963111;28;19958;-77
2023/03/01 13:06:53;;;;;;;;;;;7.10;99.90;;;;;;4965916;29;19926;-84
2023/03/01 13:09:23;;;;;;;;;;;7.20;99.90;;;;;;4965964;28;19981;-83
2023/03/01 13:11:48;;;;;;;;;;;7.20;99.90;;;;;;4982047;28;19927;-79
2023/03/01 13:14:20;;;;;;;;;;;7.20;99.90;;;;;;4951058;28;19976;-83
2023/03/01 13:16:48;;;;;;;;;;;7.10;99.90;;;;;;4950395;28;20524;-84
2023/03/01 13:19:24;;;;;;;;;;;7.00;99.90;;;;;;4943303;28;19984;-80
2023/03/01 13:21:51;;;;;;;;;;;6.90;99.90;;;;;;4969427;28;20255;-85
2023/03/01 13:24:33;;;;;;;;;;;7.10;99.90;;;;;;4970219;28;20005;-82
2023/03/01 13:27:04;;;;;;;;;;;6.90;99.90;;;;;;4950567;28;19926;-84
2023/03/01 13:29:43;;;;;;;;;;;6.90;99.90;;;;;;4963315;28;20451;-84
2023/03/01 13:32:18;;;;;;;;;;;7.20;99.90;;;;;;4980521;28;19984;-80
2023/03/01 13:34:48;;;;;;;;;;;7.10;99.90;;;;;;4947275;29;19945;-84
2023/03/01 13:37:29;;;;;;;;;;;7.20;99.90;;;;;;4949091;28;19926;-82
2023/03/01 13:39:57;;;;;;;;;;;7.20;99.90;;;;;;4957916;28;19926;-84
2023/03/01 13:42:49;;;;;;;;;;;7.10;99.90;;;;;;4948495;29;19926;-83
2023/03/01 13:45:21;;;;;;;;;;;7.40;99.90;;;;;;4947306;28;20448;-80
2023/03/01 13:47:49;;;;;;;;;;;7.30;99.90;;;;;;4948939;29;19922;-80
2023/03/01 13:50:33;;;;;;;;;;;7.20;99.90;;;;;;4961154;28;19926;-83
2023/03/01 13:53:00;;;;;;;;;;;7.20;99.90;;;;;;4947537;29;20337;-84
2023/03/01 13:55:34;;;;;;;;;;;7.20;99.90;;;;;;4948800;29;19944;-82
2023/03/01 13:58:01;;;;;;;;;;;7.20;99.90;;;;;;4947173;29;20005;-84
2023/03/01 14:00:27;;;;;;;;;;;7.20;99.90;;;;;;4947483;28;19957;-85
2023/03/01 14:03:03;;;;;;;;;;;7.20;99.90;;;;;;4928848;29;19927;-83
2023/03/01 14:05:30;;;;;;;;;;;7.30;99.90;;;;;;4969998;28;20017;-83
2023/03/01 14:07:55;;;;;;;;;;;7.10;99.90;;;;;;4949400;29;19926;-83
2023/03/01 14:10:21;;;;;;;;;;;7.20;99.90;;;;;;4956260;28;19922;-84
2023/03/01 14:12:52;;;;;;;;;;;7.20;99.90;;;;;;4946354;29;19937;-83
2023/03/01 14:15:37;;;;;;;;;;;7.10;99.90;;;;;;4948428;28;19930;-77
2023/03/01 14:18:12;;;;;;;;;;;7.20;99.90;;;;;;4949441;28;19972;-80
2023/03/01 14:20:40;;;;;;;;;;;7.30;99.90;;;;;;4963424;28;19966;-83
2023/03/01 14:23:11;;;;;;;;;;;7.30;99.90;;;;;;4948640;29;19933;-84
2023/03/01 14:25:38;;;;;;;;;;;7.10;99.90;;;;;;4953527;28;19956;-85
2023/03/01 14:28:04;;;;;;;;;;;7.10;99.90;;;;;;4967872;28;19933;-84
2023/03/01 14:30:36;;;;;;;;;;;7.10;99.90;;;;;;4949411;28;19926;-79
2023/03/01 14:33:03;;;;;;;;;;;7.10;99.90;;;;;;4949462;28;20025;-84